createdAt,value
2023-04-28T00:02:18.875Z,9.02
2023-04-28T00:05:16.098Z,8.71
2023-04-28T00:08:13.037Z,8.92
2023-04-28T00:11:13.019Z,8.81
2023-04-28T00:14:09.851Z,8.72
2023-04-28T00:17:06.954Z,8.65
2023-04-28T00:20:04.331Z,8.31
2023-04-28T00:23:01.167Z,8.41
2023-04-28T00:25:58.035Z,8.46
2023-04-28T00:28:54.886Z,8.19
2023-04-28T00:31:51.797Z,8.45
2023-04-28T00:34:48.828Z,8.27
2023-04-28T00:37:45.782Z,8.40
2023-04-28T00:40:42.692Z,8.52
2023-04-28T00:43:49.968Z,8.62
2023-04-28T00:46:47.821Z,8.61
2023-04-28T00:49:45.525Z,8.47
2023-04-28T00:52:43.454Z,8.17
2023-04-28T00:55:40.765Z,8.34
2023-04-28T00:58:37.890Z,8.50
2023-04-28T01:01:36.796Z,8.54
2023-04-28T01:04:34.693Z,8.68
2023-04-28T01:07:31.607Z,8.34
2023-04-28T01:10:28.438Z,8.50
2023-04-28T01:13:25.449Z,8.50
2023-04-28T01:16:22.323Z,8.51
2023-04-28T01:19:23.493Z,8.70
2023-04-28T01:22:20.421Z,8.60
2023-04-28T01:25:17.261Z,8.69
2023-04-28T01:28:14.124Z,8.74
2023-04-28T01:31:11.018Z,8.86
2023-04-28T01:34:08.031Z,8.67
2023-04-28T01:37:04.901Z,8.71
2023-04-28T01:40:01.716Z,8.64
2023-04-28T01:42:58.547Z,8.66
2023-04-28T01:45:55.484Z,8.25
2023-04-28T01:48:52.444Z,8.32
2023-04-28T01:51:49.410Z,8.72
2023-04-28T01:54:46.245Z,8.73
2023-04-28T01:57:43.305Z,8.94
2023-04-28T02:00:40.107Z,8.54
2023-04-28T02:03:37.092Z,8.46
2023-04-28T02:06:34.077Z,8.54
2023-04-28T02:09:31.051Z,8.62
2023-04-28T02:12:27.889Z,8.29
2023-04-28T02:15:24.708Z,8.66
2023-04-28T02:18:21.562Z,8.51
2023-04-28T02:21:18.400Z,8.30
2023-04-28T02:24:15.447Z,8.31
2023-04-28T02:27:13.439Z,8.48
2023-04-28T02:30:10.714Z,8.26
2023-04-28T02:33:07.554Z,8.44
2023-04-28T02:36:06.181Z,8.40
2023-04-28T02:39:03.015Z,8.41
2023-04-28T02:41:59.841Z,8.38
2023-04-28T02:44:56.801Z,8.27
2023-04-28T02:47:53.686Z,8.24
2023-04-28T02:50:51.151Z,8.27
2023-04-28T02:53:47.966Z,8.30
2023-04-28T02:56:44.772Z,8.28
2023-04-28T02:59:41.753Z,8.31
2023-04-28T03:02:38.730Z,8.38
2023-04-28T03:05:36.345Z,8.32
2023-04-28T03:08:33.235Z,8.59
2023-04-28T03:11:30.052Z,8.60
2023-04-28T03:14:26.893Z,8.55
2023-04-28T03:17:23.779Z,8.39
2023-04-28T03:20:20.739Z,8.52
2023-04-28T03:23:17.557Z,8.40
2023-04-28T03:26:14.902Z,8.37
2023-04-28T03:29:11.726Z,8.42
2023-04-28T03:32:08.646Z,8.29
2023-04-28T03:35:06.136Z,8.34
2023-04-28T03:38:03.007Z,8.37
2023-04-28T03:40:59.834Z,8.31
2023-04-28T03:43:56.830Z,8.23
2023-04-28T03:46:53.770Z,8.45
2023-04-28T03:49:50.646Z,8.31
2023-04-28T03:52:47.517Z,8.50
2023-04-28T03:55:44.805Z,8.36
2023-04-28T03:58:41.788Z,8.37
2023-04-28T04:01:38.987Z,8.46
2023-04-28T04:04:35.982Z,8.50
2023-04-28T04:07:32.908Z,8.56
2023-04-28T04:10:29.754Z,8.66
2023-04-28T04:13:26.704Z,8.53
2023-04-28T04:16:23.654Z,8.47
2023-04-28T04:19:20.517Z,8.45
2023-04-28T04:22:17.378Z,8.59
2023-04-28T04:25:14.317Z,8.62
2023-04-28T04:28:11.316Z,8.48
2023-04-28T04:31:08.491Z,8.76
2023-04-28T04:34:05.460Z,8.75
2023-04-28T04:37:02.418Z,8.69
2023-04-28T04:39:59.243Z,8.54
2023-04-28T04:42:56.470Z,8.55
2023-04-28T04:45:53.313Z,8.60
2023-04-28T04:48:50.126Z,8.66
2023-04-28T04:51:46.948Z,8.69
2023-04-28T04:54:43.849Z,8.72
2023-04-28T04:57:40.680Z,9.04
2023-04-28T05:00:37.813Z,8.78
2023-04-28T05:03:34.745Z,8.83
2023-04-28T05:06:31.801Z,8.93
2023-04-28T05:09:30.453Z,8.88
2023-04-28T05:12:27.482Z,8.73
2023-04-28T05:15:24.371Z,9.16
2023-04-28T05:18:21.539Z,9.25
2023-04-28T05:21:18.368Z,9.00
2023-04-28T05:24:15.659Z,9.14
2023-04-28T05:27:12.684Z,9.24
2023-04-28T05:30:10.832Z,9.22
2023-04-28T05:33:07.875Z,9.51
2023-04-28T05:36:05.372Z,9.44
2023-04-28T05:39:02.463Z,9.54
2023-04-28T05:41:59.300Z,9.51
2023-04-28T05:44:56.143Z,9.55
2023-04-28T05:47:53.062Z,9.67
2023-04-28T05:50:49.866Z,9.94
2023-04-28T05:53:48.787Z,9.75
2023-04-28T05:56:45.759Z,9.86
2023-04-28T05:59:42.688Z,10.25
2023-04-28T06:02:39.741Z,10.27
2023-04-28T06:05:37.510Z,9.91
2023-04-28T06:08:34.671Z,10.24
2023-04-28T06:11:31.666Z,10.01
2023-04-28T06:14:28.522Z,10.13
2023-04-28T06:17:25.449Z,10.29
2023-04-28T06:20:22.342Z,9.61
2023-04-28T06:23:19.168Z,9.87
2023-04-28T06:26:18.075Z,9.93
2023-04-28T06:29:15.259Z,9.66
2023-04-28T06:32:12.128Z,9.88
2023-04-28T06:35:09.132Z,9.83
2023-04-28T06:38:07.405Z,10.24
2023-04-28T06:41:04.222Z,10.31
2023-04-28T06:44:01.033Z,10.33
2023-04-28T06:46:58.045Z,10.31
2023-04-28T06:49:55.249Z,10.18
2023-04-28T06:52:52.176Z,10.02
2023-04-28T06:55:48.982Z,10.37
2023-04-28T06:58:45.848Z,10.52
2023-04-28T07:01:42.950Z,10.13
2023-04-28T07:04:39.812Z,10.26
2023-04-28T07:07:38.949Z,10.22
2023-04-28T07:10:35.909Z,10.18
2023-04-28T07:13:33.511Z,10.49
2023-04-28T07:16:30.527Z,10.46
2023-04-28T07:19:27.353Z,10.57
2023-04-28T07:22:24.273Z,10.63
2023-04-28T07:25:21.550Z,10.73
2023-04-28T07:28:18.470Z,10.48
2023-04-28T07:31:15.347Z,10.46
2023-04-28T07:34:12.140Z,10.79
2023-04-28T07:37:09.744Z,10.42
2023-04-28T07:40:07.241Z,11.19
2023-04-28T07:43:04.127Z,10.99
2023-04-28T07:46:01.007Z,11.04
2023-04-28T07:48:57.881Z,11.23
2023-04-28T07:51:55.709Z,11.50
2023-04-28T07:54:52.505Z,11.27
2023-04-28T07:57:49.599Z,11.58
2023-04-28T08:00:46.617Z,11.53
2023-04-28T08:03:43.736Z,11.43
2023-04-28T08:06:41.025Z,11.48
2023-04-28T08:09:37.930Z,11.29
2023-04-28T08:12:34.761Z,11.55
2023-04-28T08:15:31.884Z,11.77
2023-04-28T08:18:29.397Z,11.46
2023-04-28T08:21:26.978Z,11.76
2023-04-28T08:24:23.825Z,11.95
2023-04-28T08:27:20.767Z,11.94
2023-04-28T08:30:17.582Z,12.13
2023-04-28T08:33:14.742Z,12.24
2023-04-28T08:36:18.094Z,12.27
2023-04-28T08:39:15.009Z,11.92
2023-04-28T08:42:12.106Z,12.17
2023-04-28T08:45:14.511Z,11.86
2023-04-28T08:48:22.863Z,11.59
2023-04-28T08:51:40.902Z,11.73
2023-04-28T08:54:43.022Z,12.15
2023-04-28T08:57:51.736Z,12.10
2023-04-28T09:00:48.562Z,12.38
2023-04-28T09:03:47.684Z,12.34
2023-04-28T09:06:46.136Z,11.83
2023-04-28T09:09:45.194Z,11.93
2023-04-28T09:12:42.014Z,11.93
2023-04-28T09:15:41.282Z,12.59
2023-04-28T09:18:38.144Z,12.60
2023-04-28T09:21:57.034Z,12.49
2023-04-28T09:24:55.530Z,13.08
2023-04-28T09:27:52.950Z,13.32
2023-04-28T09:30:49.772Z,13.12
2023-04-28T09:34:00.164Z,12.18
2023-04-28T09:36:57.077Z,12.77
2023-04-28T09:39:55.130Z,12.10
2023-04-28T09:42:52.189Z,11.78
2023-04-28T09:45:49.025Z,12.18
2023-04-28T09:48:46.004Z,11.91
2023-04-28T09:51:42.854Z,11.46
2023-04-28T09:54:39.727Z,11.46
2023-04-28T09:57:37.098Z,11.77
2023-04-28T10:00:34.961Z,12.13
2023-04-28T10:03:32.017Z,11.96
2023-04-28T10:06:30.176Z,12.16
2023-04-28T10:09:28.918Z,11.76
2023-04-28T10:12:25.874Z,11.61
2023-04-28T10:15:23.550Z,11.70
2023-04-28T10:18:23.142Z,11.93
2023-04-28T10:21:23.491Z,11.74
2023-04-28T10:24:31.194Z,11.65
2023-04-28T10:27:31.440Z,11.66
2023-04-28T10:30:29.581Z,11.81
2023-04-28T10:33:27.462Z,12.01
2023-04-28T10:36:51.106Z,12.71
2023-04-28T10:40:33.159Z,12.76
2023-04-28T10:43:32.796Z,12.67
2023-04-28T10:47:06.925Z,12.08
2023-04-28T10:50:08.664Z,12.56
2023-04-28T10:53:05.528Z,12.92
2023-04-28T10:56:16.834Z,12.34
2023-04-28T10:59:28.292Z,11.88
2023-04-28T11:02:43.874Z,12.90
2023-04-28T11:06:26.138Z,12.47
2023-04-28T11:09:42.988Z,13.37
2023-04-28T11:13:28.163Z,13.73
2023-04-28T11:16:26.135Z,13.94
2023-04-28T11:19:28.713Z,14.52
2023-04-28T11:22:25.542Z,14.16
2023-04-28T11:25:23.116Z,14.64
2023-04-28T11:28:20.909Z,14.61
2023-04-28T11:31:20.657Z,14.62
2023-04-28T11:34:22.196Z,14.22
2023-04-28T11:37:21.167Z,13.79
2023-04-28T11:40:18.736Z,13.94
2023-04-28T11:43:15.605Z,14.24
2023-04-28T11:46:21.583Z,14.08
2023-04-28T11:49:19.501Z,13.42
2023-04-28T11:52:16.497Z,13.78
2023-04-28T11:55:17.188Z,14.30
2023-04-28T11:58:23.572Z,14.15
2023-04-28T12:01:20.432Z,13.79
2023-04-28T12:04:38.339Z,13.72
2023-04-28T12:07:45.572Z,14.34
2023-04-28T12:10:42.721Z,14.31
2023-04-28T12:13:40.296Z,13.95
2023-04-28T12:16:44.150Z,13.76
2023-04-28T12:19:46.906Z,13.80
2023-04-28T12:22:52.560Z,13.90
2023-04-28T12:25:49.372Z,13.52
2023-04-28T12:28:46.294Z,13.92
2023-04-28T12:31:53.110Z,13.00
2023-04-28T12:34:51.373Z,13.48
2023-04-28T12:37:49.261Z,13.61
2023-04-28T12:40:46.694Z,13.55
2023-04-28T12:43:44.787Z,13.20
2023-04-28T12:46:42.098Z,13.17
2023-04-28T12:49:39.392Z,13.78
2023-04-28T12:52:37.583Z,13.41
2023-04-28T12:55:34.637Z,12.96
2023-04-28T12:58:31.546Z,13.31
2023-04-28T13:01:28.643Z,13.38
2023-04-28T13:04:26.015Z,13.26
2023-04-28T13:07:22.963Z,13.57
2023-04-28T13:10:21.433Z,13.10
2023-04-28T13:13:18.302Z,12.96
2023-04-28T13:16:15.195Z,12.70
2023-04-28T13:19:13.975Z,13.19
2023-04-28T13:22:12.298Z,12.58
2023-04-28T13:25:10.084Z,13.45
2023-04-28T13:28:07.001Z,13.18
2023-04-28T13:31:03.818Z,13.38
2023-04-28T13:34:05.255Z,13.22
2023-04-28T13:37:02.153Z,13.53
2023-04-28T13:39:59.491Z,13.25
2023-04-28T13:42:56.374Z,13.19
2023-04-28T13:45:53.450Z,13.13
2023-04-28T13:48:50.573Z,13.07
2023-04-28T13:51:47.442Z,13.16
2023-04-28T13:54:44.637Z,13.10
2023-04-28T13:57:41.841Z,13.00
2023-04-28T14:00:39.229Z,13.60
2023-04-28T14:03:36.226Z,13.33
2023-04-28T14:06:34.748Z,13.46
2023-04-28T14:09:32.538Z,13.18
2023-04-28T14:12:29.424Z,13.20
2023-04-28T14:15:26.321Z,13.55
2023-04-28T14:18:23.224Z,13.42
2023-04-28T14:21:20.050Z,13.29
2023-04-28T14:24:16.960Z,13.29
2023-04-28T14:27:15.180Z,13.40
2023-04-28T14:30:12.293Z,13.62
2023-04-28T14:33:09.214Z,13.42
2023-04-28T14:36:06.129Z,13.19
2023-04-28T14:39:02.982Z,13.45
2023-04-28T14:41:59.830Z,13.86
2023-04-28T14:44:57.246Z,13.62
2023-04-28T14:47:54.150Z,13.28
2023-04-28T14:50:51.620Z,12.93
2023-04-28T14:53:49.172Z,13.19
2023-04-28T14:56:46.031Z,13.07
2023-04-28T14:59:42.875Z,13.66
2023-04-28T15:02:39.888Z,13.75
2023-04-28T15:05:36.805Z,13.96
2023-04-28T15:08:33.690Z,13.63
2023-04-28T15:11:31.336Z,13.69
2023-04-28T15:14:28.885Z,13.78
2023-04-28T15:17:25.837Z,13.80
2023-04-28T15:20:22.753Z,13.62
2023-04-28T15:23:20.288Z,13.91
2023-04-28T15:26:17.128Z,14.17
2023-04-28T15:29:14.014Z,13.90
2023-04-28T15:32:10.859Z,13.94
2023-04-28T15:35:08.124Z,13.89
2023-04-28T15:38:05.199Z,13.74
2023-04-28T15:41:02.324Z,13.86
2023-04-28T15:44:00.520Z,13.71
2023-04-28T15:46:57.361Z,13.73
2023-04-28T15:49:54.166Z,13.69
2023-04-28T15:52:51.174Z,13.52
2023-04-28T15:55:48.436Z,13.34
2023-04-28T15:58:45.470Z,13.56
2023-04-28T16:01:42.530Z,13.63
2023-04-28T16:04:39.725Z,13.92
2023-04-28T16:07:40.955Z,13.70
2023-04-28T16:10:41.147Z,13.37
2023-04-28T16:13:38.030Z,13.56
2023-04-28T16:16:35.607Z,13.82
2023-04-28T16:19:32.686Z,13.87
2023-04-28T16:22:29.767Z,13.86
2023-04-28T16:25:26.649Z,13.54
2023-04-28T16:28:23.967Z,13.80
2023-04-28T16:31:20.854Z,13.39
2023-04-28T16:34:19.293Z,13.64
2023-04-28T16:37:16.492Z,13.79
2023-04-28T16:40:14.979Z,13.69
2023-04-28T16:43:11.837Z,13.82
2023-04-28T16:46:09.832Z,13.93
2023-04-28T16:49:06.725Z,14.04
2023-04-28T16:52:04.676Z,13.84
2023-04-28T16:55:01.538Z,13.76
2023-04-28T16:57:58.418Z,13.58
2023-04-28T17:00:55.347Z,13.77
2023-04-28T17:03:52.514Z,13.83
2023-04-28T17:06:50.790Z,13.66
2023-04-28T17:09:47.656Z,13.47
2023-04-28T17:12:45.588Z,13.51
2023-04-28T17:15:42.635Z,13.40
2023-04-28T17:18:41.269Z,13.55
2023-04-28T17:21:38.424Z,13.64
2023-04-28T17:24:35.545Z,13.78
2023-04-28T17:27:32.391Z,13.74
2023-04-28T17:30:29.628Z,13.38
2023-04-28T17:33:26.607Z,13.43
2023-04-28T17:36:25.801Z,13.57
2023-04-28T17:39:22.750Z,13.91
2023-04-28T17:42:19.565Z,13.53
2023-04-28T17:45:16.802Z,13.49
2023-04-28T17:48:13.734Z,13.47
2023-04-28T17:51:10.632Z,13.52
2023-04-28T17:54:09.615Z,13.50
2023-04-28T17:57:06.615Z,13.85
2023-04-28T18:00:03.656Z,13.35
2023-04-28T18:03:02.548Z,13.64
2023-04-28T18:05:59.478Z,13.43
2023-04-28T18:08:56.310Z,13.44
2023-04-28T18:11:54.165Z,13.35
2023-04-28T18:14:51.643Z,13.64
2023-04-28T18:17:49.482Z,13.70
2023-04-28T18:20:47.951Z,13.46
2023-04-28T18:23:46.633Z,13.45
2023-04-28T18:26:43.470Z,13.66
2023-04-28T18:29:40.558Z,13.27
2023-04-28T18:32:37.678Z,13.38
2023-04-28T18:35:38.150Z,13.73
2023-04-28T18:38:36.505Z,13.66
2023-04-28T18:41:34.502Z,13.68
2023-04-28T18:44:31.573Z,13.47
2023-04-28T18:47:28.805Z,13.44
2023-04-28T18:50:25.783Z,13.30
2023-04-28T18:53:22.655Z,13.27
2023-04-28T18:56:21.036Z,13.72
2023-04-28T18:59:17.847Z,13.50
2023-04-28T19:02:16.303Z,13.28
2023-04-28T19:05:13.649Z,13.62
2023-04-28T19:08:12.037Z,13.56
2023-04-28T19:11:09.724Z,13.79
2023-04-28T19:14:06.624Z,13.43
2023-04-28T19:17:03.797Z,13.70
2023-04-28T19:20:00.805Z,13.65
2023-04-28T19:23:01.315Z,13.08
2023-04-28T19:25:59.936Z,13.52
2023-04-28T19:28:56.904Z,13.41
2023-04-28T19:31:54.468Z,13.24
2023-04-28T19:34:51.335Z,13.29
2023-04-28T19:37:49.791Z,13.48
2023-04-28T19:40:46.993Z,13.42
2023-04-28T19:43:43.886Z,13.08
2023-04-28T19:46:40.737Z,13.27
2023-04-28T19:49:37.964Z,13.32
2023-04-28T19:52:34.836Z,12.79
2023-04-28T19:55:31.890Z,13.22
2023-04-28T19:58:28.844Z,13.09
2023-04-28T20:01:25.705Z,13.12
2023-04-28T20:04:22.733Z,13.06
2023-04-28T20:07:19.777Z,13.17
2023-04-28T20:10:17.812Z,12.65
2023-04-28T20:13:15.303Z,13.07
2023-04-28T20:16:12.167Z,13.27
2023-04-28T20:19:09.017Z,13.02
2023-04-28T20:22:08.377Z,12.82
2023-04-28T20:25:06.104Z,12.86
2023-04-28T20:28:02.939Z,12.69
2023-04-28T20:30:59.795Z,12.92
2023-04-28T20:33:56.672Z,13.23
2023-04-28T20:36:54.412Z,13.15
2023-04-28T20:39:51.444Z,13.15
2023-04-28T20:42:48.614Z,13.17
2023-04-28T20:45:45.513Z,13.11
2023-04-28T20:48:42.388Z,12.58
2023-04-28T20:51:45.222Z,12.82
2023-04-28T20:54:43.659Z,12.76
2023-04-28T20:57:40.486Z,12.99
2023-04-28T21:00:40.367Z,13.15
2023-04-28T21:03:37.432Z,13.18
2023-04-28T21:06:34.325Z,12.42
2023-04-28T21:09:31.201Z,12.77
2023-04-28T21:12:28.088Z,13.21
2023-04-28T21:15:25.759Z,12.98
2023-04-28T21:18:22.587Z,13.00
2023-04-28T21:21:19.436Z,12.96
2023-04-28T21:24:16.427Z,13.16
2023-04-28T21:27:13.249Z,12.70
2023-04-28T21:30:11.770Z,12.85
2023-04-28T21:33:08.719Z,12.95
2023-04-28T21:36:09.966Z,12.74
2023-04-28T21:39:07.626Z,13.17
2023-04-28T21:42:04.820Z,13.21
2023-04-28T21:45:02.091Z,13.14
2023-04-28T21:48:00.228Z,13.01
2023-04-28T21:50:57.406Z,13.07
2023-04-28T21:53:54.399Z,13.31
2023-04-28T21:56:51.509Z,12.95
2023-04-28T21:59:48.699Z,13.04
2023-04-28T22:02:46.156Z,13.20
2023-04-28T22:05:44.941Z,13.38
2023-04-28T22:08:41.811Z,13.27
2023-04-28T22:11:38.664Z,13.43
2023-04-28T22:14:40.852Z,13.42
2023-04-28T22:17:38.136Z,13.30
2023-04-28T22:20:35.815Z,13.14
2023-04-28T22:23:32.692Z,13.40
2023-04-28T22:26:29.562Z,13.35
2023-04-28T22:29:26.435Z,13.71
2023-04-28T22:32:23.420Z,13.33
2023-04-28T22:35:20.249Z,13.60
2023-04-28T22:38:17.233Z,13.41
2023-04-28T22:41:14.056Z,13.40
2023-04-28T22:44:10.890Z,13.82
2023-04-28T22:47:07.754Z,13.47
2023-04-28T22:50:06.139Z,13.50
2023-04-28T22:53:03.873Z,13.97
2023-04-28T22:56:02.970Z,13.73
2023-04-28T22:59:00.405Z,13.50
2023-04-28T23:01:57.366Z,13.90
2023-04-28T23:04:54.378Z,13.57
2023-04-28T23:07:51.275Z,13.70
2023-04-28T23:10:48.095Z,13.38
2023-04-28T23:13:44.917Z,13.62
2023-04-28T23:16:42.078Z,13.77
2023-04-28T23:19:39.610Z,13.61
2023-04-28T23:22:36.597Z,13.21
2023-04-28T23:25:33.411Z,13.15
2023-04-28T23:28:30.246Z,13.20
2023-04-28T23:31:27.111Z,13.38
2023-04-28T23:34:24.707Z,13.41
2023-04-28T23:37:21.642Z,13.45
2023-04-28T23:40:18.490Z,13.41
2023-04-28T23:43:15.312Z,13.52
2023-04-28T23:46:12.203Z,13.38
2023-04-28T23:49:09.180Z,13.48
2023-04-28T23:52:07.580Z,13.56
2023-04-28T23:55:05.070Z,13.63
2023-04-28T23:58:01.907Z,13.51
